Startpagina
METAR-TAF:

METAR-TAF

Vliegvelden :

Luchthaven Bamako

Bamako, Mali

breedte: 12-32N, lengte: 007-57W, hoogte: 380 m

Actueel weer

Dit bericht is 47 minuten geleden gemaakt, om 07:00 UTC
Wind 2 kt uit het oostnoordoosten
Temperatuur 13°C
Vochtigheid 38%
Druk 1016 hPa
Zicht: 8000 m

METAR: GABS 290700Z 06002KT 8000 NSC 13/M01 Q1016 NOSIG

Tijdstip: 07:47 (07:47 UTC)

Verwachting

Dit bericht is 2 uur en het 47 minuten geleden gemaakt, om 05:00 UTC
Verwachting geldig van 29 om 06 UTC tot 30 om 12 UTC
Wind 10 kt uit het oosten met uitschieters tot 20 kt
Zicht: 8000 m
Kans 40% :
Tijdelijke
van 29 om 06 UTC tot 29 om 12 UTC
Zicht: 4000 m
verspreid stof

TAF: GABS 290500Z 2906/3012 08010G20KT 8000 NSC PROB40 TEMPO 2906/2912 4000 DU

Waarnemingen en weersverwachtingen van meer dan 4000 vliegvelden (METAR en TAF).

De beschikbare stations zijn de gele en rode punten op de kaart.

Ga met uw muis naar het station om de naam te zien.

Klik dan om waarnemingen en weersverwachtingen te zien.

kaart wijzigen: klik op de groene knoppen met een zwart kruis om in te zoomen, op de groene knop met een streepje om uit te zoomen of op de groene pijlen voor aangrenzende kaarten.


METAR-TAF: